createdAt,value
2023-03-06T00:14:45.354Z,17.88
2023-03-06T00:29:46.889Z,17.88
2023-03-06T00:44:48.390Z,17.92
2023-03-06T00:59:49.885Z,17.89
2023-03-06T01:14:51.385Z,17.88
2023-03-06T01:29:52.761Z,17.85
2023-03-06T01:44:54.145Z,17.85
2023-03-06T01:59:55.542Z,17.83
2023-03-06T02:14:56.968Z,17.88
2023-03-06T02:29:58.373Z,17.89
2023-03-06T02:44:59.754Z,17.90
2023-03-06T03:00:01.374Z,17.89
2023-03-06T03:15:02.884Z,17.92
2023-03-06T03:30:04.364Z,17.88
2023-03-06T03:45:05.970Z,17.90
2023-03-06T04:00:07.450Z,17.87
2023-03-06T04:15:08.978Z,17.88
2023-03-06T04:30:10.353Z,17.86
2023-03-06T04:45:11.797Z,17.88
2023-03-06T05:00:13.219Z,18.00
2023-03-06T05:15:14.660Z,18.05
2023-03-06T05:30:16.305Z,18.04
2023-03-06T05:45:17.720Z,18.04
2023-03-06T06:00:19.154Z,18.05
2023-03-06T06:15:20.626Z,18.00
2023-03-06T06:30:22.109Z,17.90
2023-03-06T06:45:23.704Z,15.97
2023-03-06T07:00:25.351Z,17.18
2023-03-06T07:15:26.837Z,17.48
2023-03-06T07:30:28.246Z,17.55
2023-03-06T07:45:29.711Z,17.64
2023-03-06T08:00:31.131Z,17.75
2023-03-06T08:15:32.527Z,17.86
2023-03-06T08:30:33.928Z,18.06
2023-03-06T08:45:35.347Z,18.14
2023-03-06T09:00:37.019Z,18.18
2023-03-06T09:15:38.451Z,18.14
2023-03-06T09:30:39.886Z,18.17
2023-03-06T09:45:41.435Z,18.37
2023-03-06T10:00:42.879Z,18.45
2023-03-06T10:15:44.429Z,18.61
2023-03-06T10:30:45.983Z,18.73
2023-03-06T10:45:50.227Z,18.60
2023-03-06T11:00:51.780Z,18.45
2023-03-06T11:15:53.167Z,18.70
2023-03-06T11:30:54.524Z,18.63
2023-03-06T11:45:55.878Z,18.26
2023-03-06T12:00:57.315Z,18.21
2023-03-06T12:15:58.782Z,18.24
2023-03-06T12:31:00.262Z,18.36
2023-03-06T12:46:01.814Z,18.10
2023-03-06T13:01:04.719Z,18.24
2023-03-06T13:16:06.273Z,18.24
2023-03-06T13:31:18.192Z,18.36
2023-03-06T13:46:26.657Z,18.81
2023-03-06T14:01:28.156Z,19.28
2023-03-06T14:16:37.589Z,19.01
2023-03-06T14:31:45.381Z,18.94
2023-03-06T14:46:46.932Z,19.40
2023-03-06T15:01:48.409Z,19.82
2023-03-06T15:16:49.948Z,22.31
2023-03-06T15:31:51.424Z,23.24
2023-03-06T15:46:59.224Z,21.09
2023-03-06T16:02:07.992Z,21.08
2023-03-06T16:17:09.402Z,19.90
2023-03-06T16:32:10.871Z,18.65
2023-03-06T16:47:12.400Z,19.11
2023-03-06T17:02:13.855Z,18.88
2023-03-06T17:17:15.274Z,18.75
2023-03-06T17:32:16.932Z,18.61
2023-03-06T17:47:18.345Z,18.55
2023-03-06T18:02:19.840Z,18.54
2023-03-06T18:17:21.279Z,18.50
2023-03-06T18:32:22.736Z,18.40
2023-03-06T18:47:24.149Z,18.55
2023-03-06T19:02:25.694Z,18.59
2023-03-06T19:17:27.071Z,18.58
2023-03-06T19:32:28.476Z,18.58
2023-03-06T19:47:29.989Z,18.60
2023-03-06T20:02:31.472Z,18.62
2023-03-06T20:17:32.876Z,18.59
2023-03-06T20:32:34.674Z,18.47
2023-03-06T20:47:36.389Z,18.43
2023-03-06T21:02:37.816Z,18.28
2023-03-06T21:17:39.290Z,18.15
2023-03-06T21:32:40.743Z,18.04
2023-03-06T21:47:42.104Z,17.99
2023-03-06T22:02:43.486Z,17.93
2023-03-06T22:17:44.960Z,17.86
2023-03-06T22:32:46.394Z,17.84
2023-03-06T22:47:47.793Z,17.80
2023-03-06T23:02:49.412Z,17.78
2023-03-06T23:17:51.009Z,17.78
2023-03-06T23:32:52.454Z,17.80
2023-03-06T23:47:53.849Z,17.76
